createdAt,value
2022-08-17T00:01:31.476Z,22.52
2022-08-17T00:04:12.406Z,22.49
2022-08-17T00:06:43.762Z,22.49
2022-08-17T00:09:18.363Z,22.45
2022-08-17T00:12:41.041Z,22.47
2022-08-17T00:14:36.176Z,22.60
2022-08-17T00:17:06.543Z,22.56
2022-08-17T00:19:34.105Z,22.72
2022-08-17T00:22:31.530Z,22.77
2022-08-17T00:24:50.712Z,22.70
2022-08-17T00:27:18.562Z,22.60
2022-08-17T00:29:46.058Z,22.76
2022-08-17T00:33:11.876Z,22.69
2022-08-17T00:35:05.265Z,22.77
2022-08-17T00:37:32.014Z,22.66
2022-08-17T00:39:58.794Z,22.64
2022-08-17T00:42:30.817Z,22.60
2022-08-17T00:44:58.375Z,22.41
2022-08-17T00:47:25.724Z,22.31
2022-08-17T00:49:53.068Z,22.32
2022-08-17T00:52:24.044Z,22.33
2022-08-17T00:54:55.421Z,22.22
2022-08-17T00:57:28.462Z,22.11
2022-08-17T01:00:02.953Z,22.09
2022-08-17T01:02:42.356Z,22.01
2022-08-17T01:05:15.178Z,21.96
2022-08-17T01:07:43.415Z,21.81
2022-08-17T01:11:00.252Z,21.74
2022-08-17T01:13:02.671Z,21.68
2022-08-17T01:15:31.871Z,21.63
2022-08-17T01:17:58.798Z,21.51
2022-08-17T01:20:25.668Z,21.45
2022-08-17T01:22:53.477Z,21.40
2022-08-17T01:25:21.447Z,21.30
2022-08-17T01:27:48.802Z,21.37
2022-08-17T01:30:57.791Z,21.24
2022-08-17T01:33:04.355Z,21.22
2022-08-17T01:35:31.690Z,21.20
2022-08-17T01:37:58.454Z,20.97
2022-08-17T01:40:43.712Z,21.14
2022-08-17T01:43:14.603Z,21.22
2022-08-17T01:45:45.351Z,21.32
2022-08-17T01:48:13.285Z,21.40
2022-08-17T01:50:43.756Z,21.45
2022-08-17T01:53:19.289Z,21.42
2022-08-17T01:55:48.522Z,21.47
2022-08-17T01:58:15.474Z,21.50
2022-08-17T02:00:59.492Z,21.36
2022-08-17T02:03:29.021Z,20.98
2022-08-17T02:05:56.418Z,21.01
2022-08-17T02:08:39.282Z,21.07
2022-08-17T02:11:15.763Z,21.20
2022-08-17T02:13:47.434Z,21.25
2022-08-17T02:16:22.167Z,21.17
2022-08-17T02:18:48.942Z,21.13
2022-08-17T02:21:15.802Z,21.10
2022-08-17T02:23:46.496Z,21.11
2022-08-17T02:26:24.223Z,21.07
2022-08-17T02:28:53.680Z,20.95
2022-08-17T02:31:21.410Z,20.82
2022-08-17T02:34:00.312Z,21.05
2022-08-17T02:36:32.321Z,21.10
2022-08-17T02:39:01.591Z,21.24
2022-08-17T02:41:28.415Z,21.23
2022-08-17T02:43:55.120Z,21.16
2022-08-17T02:46:22.595Z,21.12
2022-08-17T02:48:49.305Z,21.00
2022-08-17T02:51:16.896Z,20.88
2022-08-17T02:53:43.965Z,20.76
2022-08-17T02:56:10.671Z,20.59
2022-08-17T02:58:37.567Z,20.56
2022-08-17T03:01:06.491Z,20.58
2022-08-17T03:03:34.036Z,20.53
2022-08-17T03:06:01.219Z,20.60
2022-08-17T03:08:28.402Z,20.61
2022-08-17T03:10:55.674Z,20.55
2022-08-17T03:13:22.506Z,20.57
2022-08-17T03:15:49.958Z,20.53
2022-08-17T03:18:24.628Z,20.57
2022-08-17T03:21:00.406Z,20.62
2022-08-17T03:23:29.718Z,20.56
2022-08-17T03:25:58.645Z,20.62
2022-08-17T03:28:26.186Z,20.70
2022-08-17T03:30:52.916Z,20.82
2022-08-17T03:33:20.159Z,20.83
2022-08-17T03:35:47.150Z,20.82
2022-08-17T03:38:15.099Z,20.71
2022-08-17T03:40:56.624Z,20.68
2022-08-17T03:43:25.631Z,20.64
2022-08-17T03:46:28.837Z,20.52
2022-08-17T03:49:16.156Z,20.49
2022-08-17T03:52:01.594Z,20.60
2022-08-17T03:54:46.994Z,20.52
2022-08-17T03:57:13.873Z,20.65
2022-08-17T03:59:41.400Z,20.65
2022-08-17T04:02:13.127Z,20.63
2022-08-17T04:04:39.875Z,20.57
2022-08-17T04:07:07.473Z,20.55
2022-08-17T04:09:34.816Z,20.65
2022-08-17T04:12:02.545Z,20.72
2022-08-17T04:14:49.497Z,20.65
2022-08-17T04:17:28.544Z,20.77
2022-08-17T04:19:56.179Z,20.72
2022-08-17T04:22:32.314Z,20.94
2022-08-17T04:25:19.113Z,21.01
2022-08-17T04:27:46.044Z,20.98
2022-08-17T04:30:13.360Z,21.07
2022-08-17T04:33:03.747Z,21.10
2022-08-17T04:35:37.751Z,21.11
2022-08-17T04:38:06.137Z,21.04
2022-08-17T04:40:51.401Z,20.96
2022-08-17T04:43:20.499Z,20.96
2022-08-17T04:45:55.120Z,21.19
2022-08-17T04:48:34.725Z,21.12
2022-08-17T04:51:06.471Z,21.07
2022-08-17T04:53:33.244Z,21.02
2022-08-17T04:55:59.982Z,20.98
2022-08-17T04:58:26.840Z,20.89
2022-08-17T05:00:53.699Z,21.04
2022-08-17T05:03:20.484Z,20.98
2022-08-17T05:05:50.135Z,20.93
2022-08-17T05:08:18.136Z,21.05
2022-08-17T05:10:45.157Z,21.02
2022-08-17T05:13:18.329Z,21.07
2022-08-17T05:15:47.908Z,21.29
2022-08-17T05:18:15.135Z,21.25
2022-08-17T05:20:42.716Z,21.41
2022-08-17T05:23:13.115Z,21.53
2022-08-17T05:25:42.877Z,21.45
2022-08-17T05:28:15.444Z,21.55
2022-08-17T05:30:44.247Z,21.58
2022-08-17T05:33:18.388Z,21.76
2022-08-17T05:35:48.342Z,21.88
2022-08-17T05:38:17.399Z,21.90
2022-08-17T05:40:45.203Z,22.00
2022-08-17T05:43:11.966Z,22.11
2022-08-17T05:45:55.400Z,22.29
2022-08-17T05:48:35.623Z,22.40
2022-08-17T05:51:23.931Z,22.46
2022-08-17T05:53:59.891Z,22.65
2022-08-17T05:56:33.009Z,22.73
2022-08-17T05:59:18.814Z,22.82
2022-08-17T06:01:58.838Z,22.85
2022-08-17T06:04:46.826Z,22.91
2022-08-17T06:07:25.819Z,23.07
2022-08-17T06:10:11.727Z,23.21
2022-08-17T06:12:56.167Z,23.45
2022-08-17T06:15:31.404Z,23.57
2022-08-17T06:18:05.731Z,23.56
2022-08-17T06:20:47.828Z,23.72
2022-08-17T06:23:22.796Z,23.78
2022-08-17T06:25:55.325Z,23.81
2022-08-17T06:28:38.048Z,23.96
2022-08-17T06:31:20.127Z,24.22
2022-08-17T06:33:47.540Z,24.40
2022-08-17T06:36:19.799Z,24.49
2022-08-17T06:39:05.118Z,24.55
2022-08-17T06:41:43.871Z,24.58
2022-08-17T06:44:52.173Z,24.73
2022-08-17T06:47:28.908Z,24.79
2022-08-17T06:50:10.056Z,24.95
2022-08-17T06:52:50.243Z,25.07
2022-08-17T06:55:32.180Z,25.07
2022-08-17T06:58:15.867Z,25.21
2022-08-17T07:00:47.684Z,25.27
2022-08-17T07:03:29.582Z,25.39
2022-08-17T07:06:05.866Z,25.52
2022-08-17T07:09:14.175Z,25.75
2022-08-17T07:11:50.891Z,25.91
2022-08-17T07:14:42.341Z,26.03
2022-08-17T07:17:20.377Z,26.13
2022-08-17T07:19:49.992Z,26.14
2022-08-17T07:22:55.321Z,26.19
2022-08-17T07:25:21.572Z,26.26
2022-08-17T07:27:54.124Z,26.38
2022-08-17T07:30:45.686Z,26.54
2022-08-17T07:33:27.543Z,26.67
2022-08-17T07:35:57.476Z,26.74
2022-08-17T07:38:28.381Z,26.76
2022-08-17T07:40:57.718Z,26.73
2022-08-17T07:43:57.193Z,26.87
2022-08-17T07:46:48.631Z,26.96
2022-08-17T07:49:15.311Z,26.86
2022-08-17T07:51:47.851Z,27.02
2022-08-17T07:54:19.651Z,27.03
2022-08-17T07:56:50.634Z,27.12
2022-08-17T07:59:33.250Z,27.21
2022-08-17T08:02:22.713Z,27.29
2022-08-17T08:05:08.664Z,27.38
2022-08-17T08:07:40.099Z,27.50
2022-08-17T08:10:07.109Z,27.59
2022-08-17T08:12:43.982Z,27.64
2022-08-17T08:15:40.156Z,27.67
2022-08-17T08:18:38.782Z,27.66
2022-08-17T08:21:56.489Z,27.73
2022-08-17T08:24:30.701Z,27.79
2022-08-17T08:27:22.357Z,27.86
2022-08-17T08:30:16.300Z,27.92
2022-08-17T08:32:45.008Z,27.90
2022-08-17T08:35:22.712Z,27.93
2022-08-17T08:37:52.603Z,27.93
2022-08-17T08:40:34.672Z,27.90
2022-08-17T08:43:54.843Z,27.79
2022-08-17T08:46:35.488Z,27.77
2022-08-17T08:50:02.598Z,27.79
2022-08-17T08:52:53.739Z,27.82
2022-08-17T08:55:59.156Z,27.91
2022-08-17T08:58:50.747Z,27.96
2022-08-17T09:01:23.329Z,27.97
2022-08-17T09:04:23.310Z,28.07
2022-08-17T09:07:10.365Z,28.09
2022-08-17T09:10:01.845Z,28.19
2022-08-17T09:13:09.621Z,28.20
2022-08-17T09:15:48.273Z,28.36
2022-08-17T09:18:59.844Z,28.39
2022-08-17T09:21:13.817Z,28.37
2022-08-17T09:24:00.228Z,28.40
2022-08-17T09:26:48.524Z,28.52
2022-08-17T09:29:17.479Z,28.55
2022-08-17T09:31:55.081Z,28.62
2022-08-17T09:34:54.924Z,28.69
2022-08-17T09:37:35.440Z,28.84
2022-08-17T09:40:18.470Z,28.88
2022-08-17T09:42:52.364Z,28.88
2022-08-17T09:45:27.017Z,29.05
2022-08-17T09:48:12.174Z,29.15
2022-08-17T09:51:05.174Z,29.26
2022-08-17T09:53:36.916Z,29.31
2022-08-17T09:56:24.278Z,29.38
2022-08-17T09:59:16.910Z,29.33
2022-08-17T10:01:51.764Z,29.46
2022-08-17T10:04:47.810Z,29.54
2022-08-17T10:07:30.500Z,29.73
2022-08-17T10:10:25.034Z,29.81
2022-08-17T10:13:18.358Z,29.99
2022-08-17T10:16:22.690Z,30.27
2022-08-17T10:19:02.275Z,30.34
2022-08-17T10:21:50.158Z,30.26
2022-08-17T10:25:21.162Z,30.38
2022-08-17T10:27:49.123Z,30.70
2022-08-17T10:30:18.896Z,30.85
2022-08-17T10:32:59.205Z,31.03
2022-08-17T10:35:44.220Z,31.02
2022-08-17T10:38:39.976Z,30.97
2022-08-17T10:41:16.769Z,30.99
2022-08-17T10:44:39.095Z,31.18
2022-08-17T10:47:05.578Z,31.33
2022-08-17T10:49:38.005Z,31.44
2022-08-17T10:52:27.841Z,31.59
2022-08-17T10:54:58.053Z,31.71
2022-08-17T10:57:34.557Z,31.81
2022-08-17T11:00:08.249Z,31.94
2022-08-17T11:02:51.237Z,32.00
2022-08-17T11:05:30.472Z,32.16
2022-08-17T11:08:01.715Z,32.20
2022-08-17T11:10:58.112Z,32.16
2022-08-17T11:13:40.608Z,32.18
2022-08-17T11:16:26.036Z,32.23
2022-08-17T11:19:10.958Z,32.33
2022-08-17T11:21:43.478Z,32.40
2022-08-17T11:24:35.039Z,32.45
2022-08-17T11:27:13.982Z,32.63
2022-08-17T11:29:58.118Z,32.71
2022-08-17T11:32:47.619Z,32.92
2022-08-17T11:35:21.663Z,32.93
2022-08-17T11:38:32.319Z,32.97
2022-08-17T11:41:14.242Z,32.96
2022-08-17T11:44:28.500Z,32.98
2022-08-17T11:47:13.582Z,33.12
2022-08-17T11:50:27.664Z,33.24
2022-08-17T11:52:55.229Z,33.42
2022-08-17T11:55:38.437Z,33.56
2022-08-17T11:58:29.146Z,33.55
2022-08-17T12:01:08.609Z,33.37
2022-08-17T12:03:35.361Z,33.19
2022-08-17T12:06:17.098Z,33.12
2022-08-17T12:08:51.958Z,33.24
2022-08-17T12:12:10.988Z,33.12
2022-08-17T12:15:09.509Z,32.98
2022-08-17T12:17:41.070Z,33.01
2022-08-17T12:20:23.166Z,33.01
2022-08-17T12:22:57.666Z,32.88
2022-08-17T12:25:33.719Z,32.84
2022-08-17T12:28:06.339Z,32.91
2022-08-17T12:30:35.472Z,32.88
2022-08-17T12:33:02.539Z,32.75
2022-08-17T12:35:36.445Z,32.83
2022-08-17T12:38:07.433Z,32.92
2022-08-17T12:40:58.021Z,32.83
2022-08-17T12:43:27.533Z,32.79
2022-08-17T12:45:57.946Z,32.86
2022-08-17T12:48:27.250Z,32.83
2022-08-17T12:51:01.253Z,32.80
2022-08-17T12:53:30.640Z,32.79
2022-08-17T12:56:02.633Z,32.67
2022-08-17T12:58:33.205Z,32.64
2022-08-17T13:01:09.249Z,32.70
2022-08-17T13:03:40.159Z,32.67
2022-08-17T13:06:14.481Z,32.78
2022-08-17T13:08:44.679Z,32.81
2022-08-17T13:11:14.614Z,32.77
2022-08-17T13:13:44.643Z,32.69
2022-08-17T13:16:14.473Z,32.56
2022-08-17T13:19:14.926Z,32.64
2022-08-17T13:21:54.280Z,32.71
2022-08-17T13:24:25.075Z,32.76
2022-08-17T13:27:13.331Z,32.74
2022-08-17T13:29:51.363Z,32.86
2022-08-17T13:32:30.970Z,33.00
2022-08-17T13:35:15.011Z,33.02
2022-08-17T13:37:57.759Z,33.21
2022-08-17T13:40:53.158Z,33.16
2022-08-17T13:43:46.435Z,33.09
2022-08-17T13:46:27.033Z,33.01
2022-08-17T13:48:58.446Z,33.07
2022-08-17T13:51:29.131Z,34.24
2022-08-17T13:53:59.328Z,33.79
2022-08-17T13:56:46.779Z,33.54
2022-08-17T13:59:55.052Z,33.41
2022-08-17T14:02:28.276Z,33.33
2022-08-17T14:04:56.489Z,33.24
2022-08-17T14:07:28.229Z,33.20
2022-08-17T14:10:02.736Z,33.18
2022-08-17T14:12:33.155Z,33.15
2022-08-17T14:15:01.145Z,33.14
2022-08-17T14:17:36.322Z,33.15
2022-08-17T14:20:07.097Z,33.18
2022-08-17T14:22:37.223Z,33.16
2022-08-17T14:25:05.185Z,33.14
2022-08-17T14:27:51.814Z,33.21
2022-08-17T14:30:22.294Z,33.13
2022-08-17T14:32:49.610Z,33.41
2022-08-17T14:35:16.594Z,33.45
2022-08-17T14:37:45.718Z,33.35
2022-08-17T14:40:13.974Z,33.30
2022-08-17T14:42:43.109Z,33.27
2022-08-17T14:45:27.123Z,33.22
2022-08-17T14:48:04.569Z,33.12
2022-08-17T14:50:32.123Z,33.07
2022-08-17T14:53:04.438Z,33.03
2022-08-17T14:55:31.205Z,33.04
2022-08-17T14:57:58.252Z,33.02
2022-08-17T15:00:25.442Z,32.98
2022-08-17T15:02:55.827Z,33.00
2022-08-17T15:05:26.151Z,32.98
2022-08-17T15:07:53.621Z,33.00
2022-08-17T15:10:20.687Z,33.00
2022-08-17T15:12:48.471Z,32.98
2022-08-17T15:15:17.493Z,32.95
2022-08-17T15:17:45.939Z,32.90
2022-08-17T15:20:19.542Z,32.85
2022-08-17T15:22:54.991Z,32.82
2022-08-17T15:25:22.440Z,32.83
2022-08-17T15:27:49.523Z,32.81
2022-08-17T15:30:17.017Z,32.83
2022-08-17T15:32:50.633Z,32.92
2022-08-17T15:35:26.882Z,32.91
2022-08-17T15:37:56.724Z,32.84
2022-08-17T15:40:23.529Z,32.78
2022-08-17T15:42:51.078Z,32.76
2022-08-17T15:45:22.899Z,32.75
2022-08-17T15:47:49.753Z,32.67
2022-08-17T15:50:16.604Z,32.64
2022-08-17T15:52:44.968Z,32.63
2022-08-17T15:55:15.039Z,32.62
2022-08-17T15:57:41.906Z,32.62
2022-08-17T16:00:09.749Z,32.55
2022-08-17T16:03:45.507Z,32.50
2022-08-17T16:05:28.700Z,32.49
2022-08-17T16:07:59.696Z,32.89
2022-08-17T16:10:35.330Z,32.99
2022-08-17T16:13:03.574Z,32.79
2022-08-17T16:15:31.684Z,32.67
2022-08-17T16:17:58.768Z,32.55
2022-08-17T16:20:25.751Z,32.42
2022-08-17T16:22:52.778Z,32.37
2022-08-17T16:25:49.694Z,32.32
2022-08-17T16:28:16.125Z,32.27
2022-08-17T16:30:43.600Z,32.29
2022-08-17T16:33:11.691Z,32.19
2022-08-17T16:35:38.746Z,32.15
2022-08-17T16:38:05.463Z,32.10
2022-08-17T16:40:35.850Z,32.17
2022-08-17T16:43:03.204Z,32.54
2022-08-17T16:45:36.710Z,32.43
2022-08-17T16:48:03.997Z,32.37
2022-08-17T16:50:31.987Z,32.12
2022-08-17T16:53:10.685Z,32.04
2022-08-17T16:55:38.342Z,31.93
2022-08-17T16:58:06.288Z,31.91
2022-08-17T17:00:33.935Z,31.85
2022-08-17T17:03:19.517Z,31.78
2022-08-17T17:06:07.286Z,31.75
2022-08-17T17:08:48.927Z,31.64
2022-08-17T17:11:23.232Z,31.61
2022-08-17T17:13:57.862Z,31.63
2022-08-17T17:16:30.794Z,31.50
2022-08-17T17:19:35.096Z,31.45
2022-08-17T17:22:16.294Z,31.35
2022-08-17T17:25:01.830Z,31.25
2022-08-17T17:28:01.274Z,31.12
2022-08-17T17:30:47.013Z,30.91
2022-08-17T17:33:25.576Z,30.90
2022-08-17T17:36:00.164Z,30.80
2022-08-17T17:38:33.170Z,30.73
2022-08-17T17:41:04.593Z,30.67
2022-08-17T17:43:40.122Z,30.54
2022-08-17T17:46:27.815Z,30.52
2022-08-17T17:48:58.537Z,30.37
2022-08-17T17:52:08.110Z,30.19
2022-08-17T17:54:50.605Z,30.04
2022-08-17T17:57:32.774Z,30.05
2022-08-17T18:00:23.645Z,29.89
2022-08-17T18:03:17.795Z,29.83
2022-08-17T18:06:22.047Z,29.69
2022-08-17T18:09:12.190Z,29.61
2022-08-17T18:11:59.083Z,29.47
2022-08-17T18:14:37.144Z,29.35
2022-08-17T18:17:03.963Z,29.15
2022-08-17T18:19:31.615Z,29.03
2022-08-17T18:22:14.208Z,28.87
2022-08-17T18:24:47.845Z,28.76
2022-08-17T18:27:49.458Z,28.63
2022-08-17T18:30:20.037Z,28.56
2022-08-17T18:32:46.933Z,28.45
2022-08-17T18:35:16.374Z,28.34
2022-08-17T18:37:43.190Z,28.32
2022-08-17T18:40:23.384Z,28.27
2022-08-17T18:43:43.929Z,28.15
2022-08-17T18:46:35.156Z,28.01
2022-08-17T18:49:07.756Z,27.93
2022-08-17T18:51:43.266Z,27.79
2022-08-17T18:54:20.107Z,27.73
2022-08-17T18:56:58.851Z,27.63
2022-08-17T18:59:40.922Z,27.61
2022-08-17T19:02:22.135Z,27.53
2022-08-17T19:05:41.363Z,27.42
2022-08-17T19:08:34.178Z,27.31
2022-08-17T19:11:09.899Z,27.19
2022-08-17T19:13:54.745Z,27.16
2022-08-17T19:16:31.202Z,27.08
2022-08-17T19:19:23.374Z,27.01
2022-08-17T19:22:10.381Z,26.92
2022-08-17T19:24:47.700Z,26.83
2022-08-17T19:27:46.392Z,26.80
2022-08-17T19:30:16.441Z,26.71
2022-08-17T19:32:43.379Z,26.54
2022-08-17T19:35:17.187Z,26.61
2022-08-17T19:37:57.205Z,26.64
2022-08-17T19:40:53.988Z,26.54
2022-08-17T19:43:47.965Z,26.46
2022-08-17T19:46:56.369Z,26.49
2022-08-17T19:49:33.531Z,26.40
2022-08-17T19:52:20.507Z,26.30
2022-08-17T19:54:58.917Z,26.33
2022-08-17T19:57:49.681Z,26.30
2022-08-17T20:00:19.202Z,26.15
2022-08-17T20:03:00.872Z,25.98
2022-08-17T20:06:08.489Z,25.84
2022-08-17T20:08:39.439Z,25.62
2022-08-17T20:11:21.212Z,25.69
2022-08-17T20:14:00.132Z,25.76
2022-08-17T20:16:27.582Z,25.72
2022-08-17T20:18:58.843Z,25.74
2022-08-17T20:21:50.291Z,25.80
2022-08-17T20:24:25.535Z,25.78
2022-08-17T20:27:09.007Z,25.86
2022-08-17T20:30:07.007Z,25.69
2022-08-17T20:32:48.887Z,25.64
2022-08-17T20:35:18.579Z,25.65
2022-08-17T20:38:41.563Z,25.48
2022-08-17T20:41:14.371Z,25.43
2022-08-17T20:44:02.319Z,25.45
2022-08-17T20:46:46.089Z,25.52
2022-08-17T20:49:24.530Z,25.45
2022-08-17T20:52:02.828Z,25.38
2022-08-17T20:54:54.089Z,25.00
2022-08-17T20:57:33.137Z,24.45
2022-08-17T21:00:19.012Z,24.78
2022-08-17T21:03:10.829Z,24.88
2022-08-17T21:06:00.708Z,24.93
2022-08-17T21:08:32.327Z,24.99
2022-08-17T21:11:00.980Z,24.94
2022-08-17T21:13:44.221Z,24.40
2022-08-17T21:16:25.862Z,24.06
2022-08-17T21:19:10.235Z,24.20
2022-08-17T21:21:47.189Z,24.24
2022-08-17T21:24:33.118Z,24.39
2022-08-17T21:27:00.186Z,24.44
2022-08-17T21:29:33.826Z,24.32
2022-08-17T21:32:05.303Z,24.36
2022-08-17T21:34:33.097Z,24.40
2022-08-17T21:37:24.388Z,24.35
2022-08-17T21:40:18.763Z,24.45
2022-08-17T21:42:49.363Z,24.63
2022-08-17T21:45:29.014Z,24.60
2022-08-17T21:48:27.469Z,24.55
2022-08-17T21:51:10.552Z,24.60
2022-08-17T21:53:47.124Z,24.62
2022-08-17T21:56:24.411Z,24.60
2022-08-17T21:59:26.102Z,24.64
2022-08-17T22:02:05.675Z,24.63
2022-08-17T22:04:38.971Z,24.44
2022-08-17T22:07:08.999Z,24.30
2022-08-17T22:09:48.997Z,24.31
2022-08-17T22:12:18.770Z,24.15
2022-08-17T22:14:56.818Z,24.12
2022-08-17T22:17:44.866Z,24.16
2022-08-17T22:20:16.836Z,24.08
2022-08-17T22:23:05.347Z,23.98
2022-08-17T22:25:38.173Z,23.89
2022-08-17T22:28:11.517Z,24.00
2022-08-17T22:30:43.889Z,23.84
2022-08-17T22:33:41.216Z,23.89
2022-08-17T22:36:46.273Z,23.85
2022-08-17T22:39:13.386Z,23.79
2022-08-17T22:41:43.058Z,23.69
2022-08-17T22:44:14.822Z,23.58
2022-08-17T22:46:57.126Z,23.51
2022-08-17T22:49:35.310Z,23.39
2022-08-17T22:52:17.391Z,23.23
2022-08-17T22:55:09.530Z,23.10
2022-08-17T22:57:56.489Z,22.87
2022-08-17T23:00:41.347Z,22.72
2022-08-17T23:03:11.486Z,22.78
2022-08-17T23:05:43.579Z,22.90
2022-08-17T23:08:12.677Z,22.93
2022-08-17T23:10:41.561Z,23.02
2022-08-17T23:13:12.002Z,23.01
2022-08-17T23:15:41.842Z,23.05
2022-08-17T23:18:08.655Z,22.94
2022-08-17T23:20:37.660Z,22.73
2022-08-17T23:23:06.857Z,22.47
2022-08-17T23:25:35.669Z,22.31
2022-08-17T23:28:04.924Z,22.39
2022-08-17T23:30:34.597Z,22.49
2022-08-17T23:33:07.766Z,22.61
2022-08-17T23:35:39.759Z,22.69
2022-08-17T23:38:12.441Z,22.76
2022-08-17T23:40:40.419Z,22.83
2022-08-17T23:43:23.382Z,22.91
2022-08-17T23:45:54.029Z,22.94
2022-08-17T23:48:28.432Z,22.86
2022-08-17T23:51:06.128Z,22.83
2022-08-17T23:53:34.910Z,22.83
2022-08-17T23:56:07.009Z,22.91
2022-08-17T23:58:38.657Z,22.92
